Time;durP1;ratioP1;P1;durP2;ratioP2;P2;SDS_P1;SDS_P2;PMS_P1;PMS_P2;Temp;Humidity;BMP_temperature;BMP_pressure;BME280_temperature;BME280_humidity;BME280_pressure;Samples;Min_cycle;Max_cycle;Signal;HPM_P1;HPM_P2
2021/12/19 00:02:29;;;;;;;;;;;6.20;91.60;;;;;;5009235;28;20036;-61
2021/12/19 00:10:04;;;;;;;;;;;6.20;91.60;;;;;;5026537;28;20367;-61
2021/12/19 00:12:29;;;;;;;;;;;6.20;91.50;;;;;;5026176;28;19914;-62
2021/12/19 00:14:55;;;;;;;;;;;6.20;91.50;;;;;;5015623;28;19936;-61
2021/12/19 00:17:20;;;;;;;;;;;6.20;91.60;;;;;;4994441;28;20066;-61
2021/12/19 00:19:46;;;;;;;;;;;6.20;91.60;;;;;;5009176;28;20353;-61
2021/12/19 00:22:11;;;;;;;;;;;6.20;91.60;;;;;;5018786;28;19913;-61
2021/12/19 00:24:37;;;;;;;;;;;6.20;91.60;;;;;;5005055;28;19918;-61
2021/12/19 00:27:02;;;;;;;;;;;6.20;91.50;;;;;;5026844;28;19913;-61
2021/12/19 00:29:28;;;;;;;;;;;6.20;91.60;;;;;;5010447;28;19914;-61
2021/12/19 00:31:53;;;;;;;;;;;6.20;91.50;;;;;;5025601;28;20345;-61
2021/12/19 00:34:19;;;;;;;;;;;6.20;91.50;;;;;;5008778;28;20384;-61
2021/12/19 00:36:44;;;;;;;;;;;6.20;91.50;;;;;;5033483;28;19927;-61
2021/12/19 00:39:10;;;;;;;;;;;6.20;91.50;;;;;;4997568;28;19918;-62
2021/12/19 00:41:35;;;;;;;;;;;6.20;91.50;;;;;;5011377;28;19921;-61
2021/12/19 00:44:09;;;;;;;;;;;6.20;91.40;;;;;;5004300;28;19914;-61
2021/12/19 00:46:43;;;;;;;;;;;6.20;91.40;;;;;;5011687;28;19914;-61
2021/12/19 00:49:08;;;;;;;;;;;6.20;91.40;;;;;;5010905;28;19927;-61
2021/12/19 00:51:34;;;;;;;;;;;6.20;91.40;;;;;;5008812;28;19913;-61
2021/12/19 00:53:59;;;;;;;;;;;6.20;91.40;;;;;;5000621;28;19921;-61
2021/12/19 00:56:25;;;;;;;;;;;6.20;91.40;;;;;;5015558;28;19917;-61
2021/12/19 00:58:51;;;;;;;;;;;6.20;91.40;;;;;;5030097;28;19920;-61
2021/12/19 01:01:16;;;;;;;;;;;6.20;91.40;;;;;;5020178;28;20340;-61
2021/12/19 01:03:44;;;;;;;;;;;6.20;91.40;;;;;;5027365;28;19909;-61
2021/12/19 01:06:09;;;;;;;;;;;6.20;91.40;;;;;;5006147;28;20257;-61
2021/12/19 01:08:34;;;;;;;;;;;6.20;91.40;;;;;;5012379;28;19913;-62
2021/12/19 01:11:00;;;;;;;;;;;6.20;91.40;;;;;;5027262;28;20221;-61
2021/12/19 01:13:25;;;;;;;;;;;6.20;91.40;;;;;;5009231;28;19917;-61
2021/12/19 01:15:52;;;;;;;;;;;6.20;91.30;;;;;;5028252;28;19913;-61
2021/12/19 01:18:17;;;;;;;;;;;6.20;91.40;;;;;;4998319;28;19924;-61
2021/12/19 01:20:43;;;;;;;;;;;6.20;91.40;;;;;;5023902;28;19913;-61
2021/12/19 01:23:08;;;;;;;;;;;6.20;91.30;;;;;;5029926;28;19920;-61
2021/12/19 01:25:34;;;;;;;;;;;6.20;91.30;;;;;;5006312;28;20364;-61
2021/12/19 01:27:59;;;;;;;;;;;6.20;91.30;;;;;;5027331;28;19924;-61
2021/12/19 01:30:25;;;;;;;;;;;6.20;91.30;;;;;;5028602;28;20382;-61
2021/12/19 01:32:50;;;;;;;;;;;6.20;91.30;;;;;;5026992;28;20016;-61
2021/12/19 01:35:17;;;;;;;;;;;6.20;91.30;;;;;;5023167;28;19924;-62
2021/12/19 01:37:42;;;;;;;;;;;6.20;91.30;;;;;;5006987;28;19917;-61
2021/12/19 01:40:08;;;;;;;;;;;6.20;91.30;;;;;;5011980;28;19916;-62
2021/12/19 01:42:34;;;;;;;;;;;6.20;91.30;;;;;;5013312;28;19917;-61
2021/12/19 01:45:00;;;;;;;;;;;6.20;91.30;;;;;;5005805;28;19916;-61
2021/12/19 01:47:25;;;;;;;;;;;6.20;91.30;;;;;;5009791;28;19921;-61
2021/12/19 01:49:51;;;;;;;;;;;6.20;91.30;;;;;;5023780;28;20593;-61
2021/12/19 01:52:16;;;;;;;;;;;6.20;91.30;;;;;;5014703;28;19913;-61
2021/12/19 01:54:41;;;;;;;;;;;6.20;91.30;;;;;;5027128;28;20262;-61
2021/12/19 01:57:07;;;;;;;;;;;6.20;91.30;;;;;;5031022;28;19913;-61
2021/12/19 01:59:32;;;;;;;;;;;6.20;91.30;;;;;;5012125;28;20031;-61
2021/12/19 02:01:58;;;;;;;;;;;6.20;91.20;;;;;;5022421;28;19933;-61
2021/12/19 02:04:23;;;;;;;;;;;6.20;91.30;;;;;;5009628;28;20438;-61
2021/12/19 02:06:49;;;;;;;;;;;6.20;91.30;;;;;;5008117;28;20325;-61
2021/12/19 02:09:15;;;;;;;;;;;6.10;91.30;;;;;;5007315;28;19928;-61
2021/12/19 02:11:41;;;;;;;;;;;6.20;91.20;;;;;;5006545;28;19972;-61
2021/12/19 02:14:07;;;;;;;;;;;6.20;91.30;;;;;;5026427;28;20348;-61
2021/12/19 02:16:33;;;;;;;;;;;6.20;91.30;;;;;;4996868;28;19917;-62
2021/12/19 02:18:58;;;;;;;;;;;6.20;91.20;;;;;;4997024;28;19932;-62
2021/12/19 02:21:24;;;;;;;;;;;6.20;91.20;;;;;;5005326;28;20012;-62
2021/12/19 02:23:50;;;;;;;;;;;6.20;91.20;;;;;;5019430;28;20369;-61
2021/12/19 02:26:15;;;;;;;;;;;6.20;91.20;;;;;;5011230;28;19986;-61
2021/12/19 02:28:41;;;;;;;;;;;6.20;91.20;;;;;;5008076;28;19914;-62
2021/12/19 02:31:06;;;;;;;;;;;6.20;91.20;;;;;;4993879;28;20015;-61
2021/12/19 02:33:35;;;;;;;;;;;6.20;91.20;;;;;;5024094;28;19909;-61
2021/12/19 02:36:18;;;;;;;;;;;6.20;91.20;;;;;;5023361;28;19963;-61
2021/12/19 02:49:23;;;;;;;;;;;6.20;91.20;;;;;;5018953;28;19924;-61
2021/12/19 02:51:49;;;;;;;;;;;6.20;91.20;;;;;;4995531;28;19932;-61
2021/12/19 02:54:15;;;;;;;;;;;6.20;91.20;;;;;;5012949;28;19936;-61
2021/12/19 02:56:40;;;;;;;;;;;6.20;91.30;;;;;;5015527;28;20391;-61
2021/12/19 02:59:06;;;;;;;;;;;6.20;91.20;;;;;;5017192;28;19943;-61
2021/12/19 03:01:31;;;;;;;;;;;6.20;91.20;;;;;;5001181;28;19932;-61
2021/12/19 03:03:57;;;;;;;;;;;6.20;91.20;;;;;;5011669;28;19913;-62
2021/12/19 03:06:22;;;;;;;;;;;6.20;91.20;;;;;;5028192;28;19921;-61
2021/12/19 03:08:50;;;;;;;;;;;6.20;91.20;;;;;;5012094;28;20348;-61
2021/12/19 03:19:22;;;;;;;;;;;6.20;91.10;;;;;;5027151;28;19915;-61
2021/12/19 03:21:47;;;;;;;;;;;6.30;91.10;;;;;;5025505;28;20256;-61
2021/12/19 03:24:13;;;;;;;;;;;6.20;91.10;;;;;;5034215;28;19920;-61
2021/12/19 03:26:38;;;;;;;;;;;6.20;91.10;;;;;;5008543;28;19941;-61
2021/12/19 03:29:04;;;;;;;;;;;6.20;91.10;;;;;;5006583;28;20344;-62
2021/12/19 03:31:30;;;;;;;;;;;6.20;91.10;;;;;;5029544;28;19913;-61
2021/12/19 03:33:55;;;;;;;;;;;6.20;91.10;;;;;;5025843;28;19913;-61
2021/12/19 03:36:21;;;;;;;;;;;6.20;91.10;;;;;;5030320;28;19941;-61
2021/12/19 03:38:46;;;;;;;;;;;6.20;91.10;;;;;;5018384;28;19917;-61
2021/12/19 03:41:22;;;;;;;;;;;6.20;91.40;;;;;;5029360;28;19917;-61
2021/12/19 03:43:47;;;;;;;;;;;6.20;91.10;;;;;;5030577;28;19935;-61
2021/12/19 03:46:13;;;;;;;;;;;6.20;91.10;;;;;;5027218;28;20004;-62
2021/12/19 03:48:38;;;;;;;;;;;6.20;91.10;;;;;;4997565;28;19967;-61
2021/12/19 03:51:04;;;;;;;;;;;6.20;91.10;;;;;;5003430;28;19948;-62
2021/12/19 03:53:29;;;;;;;;;;;6.20;91.10;;;;;;5011828;28;19914;-61
2021/12/19 03:55:55;;;;;;;;;;;6.20;91.10;;;;;;5009892;28;20410;-61
2021/12/19 03:58:20;;;;;;;;;;;6.20;91.10;;;;;;4996104;28;19917;-61
2021/12/19 04:00:46;;;;;;;;;;;6.20;91.10;;;;;;5028908;28;19933;-61
2021/12/19 04:03:17;;;;;;;;;;;6.20;91.10;;;;;;5016838;28;20430;-62
2021/12/19 04:05:43;;;;;;;;;;;6.20;91.10;;;;;;5001225;28;20059;-62
2021/12/19 04:08:08;;;;;;;;;;;6.20;91.20;;;;;;5014212;28;20016;-62
2021/12/19 04:10:34;;;;;;;;;;;6.20;91.20;;;;;;5026518;28;19941;-62
2021/12/19 04:13:00;;;;;;;;;;;6.20;91.10;;;;;;5009640;28;19909;-62
2021/12/19 04:15:26;;;;;;;;;;;6.20;91.10;;;;;;5014084;28;20206;-61
2021/12/19 04:17:51;;;;;;;;;;;6.20;91.10;;;;;;5003932;28;20377;-62
2021/12/19 04:20:18;;;;;;;;;;;6.20;91.10;;;;;;5035123;28;19935;-61
2021/12/19 04:22:44;;;;;;;;;;;6.20;91.10;;;;;;4999449;28;20464;-61
2021/12/19 04:25:10;;;;;;;;;;;6.20;91.00;;;;;;5017264;28;20004;-62
2021/12/19 04:27:36;;;;;;;;;;;6.20;91.10;;;;;;5003878;28;20003;-61
2021/12/19 04:30:03;;;;;;;;;;;6.20;91.10;;;;;;5026043;28;19959;-61
2021/12/19 04:32:33;;;;;;;;;;;6.20;91.00;;;;;;5001011;28;19917;-61
2021/12/19 04:34:58;;;;;;;;;;;6.20;91.00;;;;;;5029288;28;19996;-62
2021/12/19 04:54:02;;;;;;;;;;;6.10;91.10;;;;;;5015455;28;20364;-61
2021/12/19 04:56:40;;;;;;;;;;;6.20;91.10;;;;;;5011994;28;20380;-61
2021/12/19 05:02:07;;;;;;;;;;;6.10;91.20;;;;;;5013116;28;20002;-61
2021/12/19 05:15:31;;;;;;;;;;;6.10;91.20;;;;;;5029567;28;20022;-61
2021/12/19 05:18:02;;;;;;;;;;;6.10;91.30;;;;;;5025640;28;19913;-61
2021/12/19 05:20:29;;;;;;;;;;;6.10;91.30;;;;;;5025906;28;20224;-61
2021/12/19 05:23:01;;;;;;;;;;;6.10;91.30;;;;;;5002288;28;20030;-61
2021/12/19 05:25:26;;;;;;;;;;;6.10;91.30;;;;;;5014680;28;20013;-62
2021/12/19 05:27:53;;;;;;;;;;;6.30;91.40;;;;;;5013084;28;20019;-61
2021/12/19 05:30:19;;;;;;;;;;;6.10;91.30;;;;;;5018981;28;20024;-62
2021/12/19 05:32:45;;;;;;;;;;;6.10;91.30;;;;;;5028619;28;20003;-62
2021/12/19 05:35:12;;;;;;;;;;;6.10;91.30;;;;;;5029138;28;20026;-61
2021/12/19 05:45:50;;;;;;;;;;;6.10;91.40;;;;;;5025830;28;19920;-62
2021/12/19 05:48:15;;;;;;;;;;;6.10;91.50;;;;;;5000685;28;19921;-61
2021/12/19 05:50:42;;;;;;;;;;;6.10;91.40;;;;;;5013268;28;19959;-61
2021/12/19 05:53:08;;;;;;;;;;;6.10;91.40;;;;;;5022293;28;19913;-62
2021/12/19 05:55:34;;;;;;;;;;;6.10;91.40;;;;;;5014611;28;19921;-61
2021/12/19 05:57:59;;;;;;;;;;;6.10;91.50;;;;;;5012130;28;19909;-61
2021/12/19 06:00:25;;;;;;;;;;;6.10;91.50;;;;;;5009937;28;20280;-62
2021/12/19 06:02:51;;;;;;;;;;;6.10;91.70;;;;;;5011705;28;19917;-61
2021/12/19 06:05:16;;;;;;;;;;;6.10;91.50;;;;;;5027299;28;19968;-61
2021/12/19 06:07:42;;;;;;;;;;;6.10;91.50;;;;;;5023671;28;20018;-61
2021/12/19 06:10:07;;;;;;;;;;;6.10;91.50;;;;;;5027363;28;19917;-61
2021/12/19 06:12:33;;;;;;;;;;;6.10;91.50;;;;;;5013550;28;19913;-61
2021/12/19 06:14:58;;;;;;;;;;;6.10;91.50;;;;;;5027528;28;19913;-61
2021/12/19 06:17:24;;;;;;;;;;;6.00;91.50;;;;;;5031349;28;19913;-62
2021/12/19 06:19:49;;;;;;;;;;;6.10;91.60;;;;;;5018597;28;19913;-62
2021/12/19 06:22:15;;;;;;;;;;;6.10;91.60;;;;;;5011361;28;19940;-62
2021/12/19 06:24:40;;;;;;;;;;;6.10;91.70;;;;;;5030492;28;19936;-62
2021/12/19 06:27:06;;;;;;;;;;;6.00;91.60;;;;;;5028591;28;19917;-61
2021/12/19 06:29:32;;;;;;;;;;;6.00;91.70;;;;;;5010837;28;19917;-61
2021/12/19 06:31:57;;;;;;;;;;;6.00;91.70;;;;;;5017226;28;19928;-62
2021/12/19 06:34:23;;;;;;;;;;;6.00;91.80;;;;;;5011665;28;19935;-62
2021/12/19 06:36:51;;;;;;;;;;;6.10;91.70;;;;;;5028133;28;19913;-61
2021/12/19 06:39:16;;;;;;;;;;;6.00;91.80;;;;;;5026067;28;19982;-61
2021/12/19 06:41:42;;;;;;;;;;;6.00;91.90;;;;;;5015236;28;19925;-61
2021/12/19 06:44:07;;;;;;;;;;;6.00;91.90;;;;;;5027611;28;19909;-62
2021/12/19 06:46:33;;;;;;;;;;;6.00;92.00;;;;;;5013472;28;19919;-61
2021/12/19 06:48:58;;;;;;;;;;;6.00;92.10;;;;;;5012657;28;20395;-61
2021/12/19 06:51:24;;;;;;;;;;;6.00;92.10;;;;;;5011455;28;19916;-61
2021/12/19 06:53:49;;;;;;;;;;;6.00;92.00;;;;;;5013260;28;20039;-61
2021/12/19 06:56:15;;;;;;;;;;;6.00;92.00;;;;;;5010743;28;19917;-61
2021/12/19 06:58:40;;;;;;;;;;;6.00;92.00;;;;;;5026538;28;20320;-61
2021/12/19 07:01:06;;;;;;;;;;;6.00;91.90;;;;;;5031526;28;19932;-61
2021/12/19 07:03:31;;;;;;;;;;;6.00;91.90;;;;;;4995077;28;20408;-61
2021/12/19 07:05:56;;;;;;;;;;;6.00;91.90;;;;;;5007694;28;19920;-62
2021/12/19 07:08:22;;;;;;;;;;;6.00;91.80;;;;;;4997674;28;19928;-61
2021/12/19 07:10:48;;;;;;;;;;;6.00;91.80;;;;;;5027055;28;20273;-61
2021/12/19 07:13:19;;;;;;;;;;;6.00;91.80;;;;;;5009512;28;19980;-61
2021/12/19 07:15:46;;;;;;;;;;;6.00;91.80;;;;;;5010972;28;19946;-62
2021/12/19 07:18:11;;;;;;;;;;;6.00;91.80;;;;;;5030727;28;19913;-61
2021/12/19 07:20:41;;;;;;;;;;;6.00;91.80;;;;;;5021602;28;20046;-61
2021/12/19 07:23:07;;;;;;;;;;;6.00;91.80;;;;;;5005909;28;19917;-61
2021/12/19 07:25:32;;;;;;;;;;;6.00;91.80;;;;;;5011226;28;19913;-62
2021/12/19 07:27:57;;;;;;;;;;;5.90;91.80;;;;;;5006979;28;19932;-61
2021/12/19 07:30:25;;;;;;;;;;;5.90;91.70;;;;;;5006471;28;20309;-61
2021/12/19 07:32:51;;;;;;;;;;;6.00;91.70;;;;;;5010850;28;20257;-61
2021/12/19 07:35:17;;;;;;;;;;;6.00;91.70;;;;;;5030166;28;19913;-62
2021/12/19 07:37:45;;;;;;;;;;;5.90;91.70;;;;;;5000090;28;19913;-62
2021/12/19 07:40:15;;;;;;;;;;;6.00;91.70;;;;;;5009573;28;20526;-62
2021/12/19 07:42:41;;;;;;;;;;;6.00;91.70;;;;;;5029734;28;19913;-61
2021/12/19 07:45:07;;;;;;;;;;;5.90;91.70;;;;;;5030790;28;20431;-61
2021/12/19 07:47:32;;;;;;;;;;;5.90;91.70;;;;;;5029610;28;19920;-62
2021/12/19 07:49:58;;;;;;;;;;;5.90;91.70;;;;;;5028276;28;20271;-62
2021/12/19 07:52:23;;;;;;;;;;;5.90;91.70;;;;;;5011135;28;19920;-61
2021/12/19 07:54:49;;;;;;;;;;;5.90;91.70;;;;;;5009275;28;20287;-61
2021/12/19 07:57:14;;;;;;;;;;;5.90;91.70;;;;;;5011777;28;20365;-61
2021/12/19 07:59:40;;;;;;;;;;;5.90;91.70;;;;;;5030441;28;19919;-61
2021/12/19 08:02:05;;;;;;;;;;;5.90;91.70;;;;;;5027808;28;19928;-62
2021/12/19 08:04:31;;;;;;;;;;;5.90;91.70;;;;;;5023627;28;19925;-62
2021/12/19 08:06:56;;;;;;;;;;;5.80;91.60;;;;;;5009319;28;20320;-61
2021/12/19 08:09:36;;;;;;;;;;;5.90;91.60;;;;;;5011706;28;19920;-62
2021/12/19 08:12:05;;;;;;;;;;;5.90;91.70;;;;;;5009754;28;20365;-61
2021/12/19 08:14:30;;;;;;;;;;;5.80;91.50;;;;;;5028181;28;19949;-61
2021/12/19 08:16:56;;;;;;;;;;;5.80;91.60;;;;;;5007643;28;19976;-61
2021/12/19 08:19:21;;;;;;;;;;;5.80;91.50;;;;;;5028499;28;19909;-62
2021/12/19 08:21:47;;;;;;;;;;;5.80;91.50;;;;;;5032122;28;20285;-61
2021/12/19 08:24:13;;;;;;;;;;;5.80;91.50;;;;;;5002118;28;19948;-62
2021/12/19 08:26:39;;;;;;;;;;;5.80;91.50;;;;;;5017893;28;19914;-62
2021/12/19 08:29:05;;;;;;;;;;;5.80;91.50;;;;;;5005452;28;20401;-62
2021/12/19 08:31:30;;;;;;;;;;;5.80;91.50;;;;;;5012067;28;19917;-62
2021/12/19 08:33:57;;;;;;;;;;;5.80;91.40;;;;;;5015374;28;19924;-62
2021/12/19 08:36:23;;;;;;;;;;;5.80;91.40;;;;;;4999630;28;19995;-62
2021/12/19 08:38:48;;;;;;;;;;;5.80;91.40;;;;;;5001910;28;20063;-62
2021/12/19 08:41:14;;;;;;;;;;;5.80;91.40;;;;;;5009322;28;20356;-61
2021/12/19 08:43:39;;;;;;;;;;;5.80;91.40;;;;;;5004441;28;19909;-61
2021/12/19 08:46:07;;;;;;;;;;;5.80;91.40;;;;;;4994283;28;20360;-62
2021/12/19 08:48:32;;;;;;;;;;;5.80;91.40;;;;;;5011581;28;20344;-61
2021/12/19 08:50:57;;;;;;;;;;;5.80;91.40;;;;;;5004277;28;19996;-61
2021/12/19 08:53:23;;;;;;;;;;;5.80;91.40;;;;;;5021506;28;20345;-61
2021/12/19 08:55:48;;;;;;;;;;;5.80;91.40;;;;;;5004015;28;19909;-62
2021/12/19 08:58:14;;;;;;;;;;;5.70;91.30;;;;;;5012271;28;19909;-62
2021/12/19 09:00:39;;;;;;;;;;;5.80;91.40;;;;;;5020284;28;19922;-62
2021/12/19 09:03:05;;;;;;;;;;;5.70;91.30;;;;;;4998251;28;19910;-61
2021/12/19 09:05:31;;;;;;;;;;;5.70;91.30;;;;;;5027837;28;20283;-62
2021/12/19 09:07:56;;;;;;;;;;;5.70;91.30;;;;;;5004980;28;19918;-61
2021/12/19 09:10:22;;;;;;;;;;;5.80;91.30;;;;;;5002479;28;20300;-62
2021/12/19 09:12:47;;;;;;;;;;;5.80;91.30;;;;;;4996105;28;20269;-61
2021/12/19 09:15:13;;;;;;;;;;;5.80;91.20;;;;;;5027063;28;19909;-62
2021/12/19 09:17:38;;;;;;;;;;;5.80;91.30;;;;;;5005168;28;20003;-61
2021/12/19 09:20:04;;;;;;;;;;;5.80;91.30;;;;;;5006785;28;19913;-62
2021/12/19 09:22:29;;;;;;;;;;;5.80;91.30;;;;;;4996980;28;19920;-61
2021/12/19 09:24:55;;;;;;;;;;;5.90;91.30;;;;;;5001296;28;19909;-61
2021/12/19 09:27:20;;;;;;;;;;;5.80;91.20;;;;;;5003056;28;20273;-61
2021/12/19 09:29:46;;;;;;;;;;;5.90;91.20;;;;;;5004588;28;19932;-61
2021/12/19 09:32:11;;;;;;;;;;;5.80;91.20;;;;;;5028413;28;19932;-61
2021/12/19 09:34:37;;;;;;;;;;;5.80;91.20;;;;;;5004726;28;19948;-62
2021/12/19 09:37:02;;;;;;;;;;;5.90;91.30;;;;;;5028133;28;19971;-61
2021/12/19 09:39:28;;;;;;;;;;;5.90;91.20;;;;;;5004873;28;20258;-62
2021/12/19 09:41:54;;;;;;;;;;;5.90;91.30;;;;;;5006261;28;19914;-61
2021/12/19 09:44:19;;;;;;;;;;;5.90;91.30;;;;;;5025896;28;19996;-62
2021/12/19 09:46:46;;;;;;;;;;;5.90;91.30;;;;;;5006241;28;20062;-62
2021/12/19 09:49:13;;;;;;;;;;;6.00;91.30;;;;;;5003250;28;20438;-61
2021/12/19 09:51:39;;;;;;;;;;;6.00;91.30;;;;;;5010671;28;19960;-61
2021/12/19 09:54:05;;;;;;;;;;;6.00;91.40;;;;;;5019179;28;19945;-61
2021/12/19 09:56:33;;;;;;;;;;;6.00;91.40;;;;;;4998987;28;19928;-61
2021/12/19 09:58:59;;;;;;;;;;;6.00;91.50;;;;;;5019555;28;20012;-62
2021/12/19 10:01:25;;;;;;;;;;;6.00;91.50;;;;;;5009930;28;20004;-62
2021/12/19 10:03:50;;;;;;;;;;;6.00;91.70;;;;;;5019411;28;19952;-62
2021/12/19 10:06:18;;;;;;;;;;;6.00;91.60;;;;;;5015683;28;20319;-61
2021/12/19 10:08:45;;;;;;;;;;;6.00;91.60;;;;;;5036140;28;19964;-61
2021/12/19 10:14:28;;;;;;;;;;;6.10;91.60;;;;;;4996857;28;19910;-61
2021/12/19 10:16:53;;;;;;;;;;;5.80;91.50;;;;;;4998790;28;20387;-61
2021/12/19 10:19:19;;;;;;;;;;;6.10;91.50;;;;;;5005148;28;20012;-61
2021/12/19 10:21:44;;;;;;;;;;;6.20;91.50;;;;;;5025249;28;19932;-61
2021/12/19 10:24:28;;;;;;;;;;;6.10;91.50;;;;;;5018409;28;20003;-61
2021/12/19 10:26:53;;;;;;;;;;;6.20;91.50;;;;;;5021090;28;19909;-61
2021/12/19 10:29:19;;;;;;;;;;;6.20;91.50;;;;;;5007706;28;20277;-61
2021/12/19 10:31:44;;;;;;;;;;;6.20;91.50;;;;;;5025893;28;19973;-61
2021/12/19 10:34:19;;;;;;;;;;;6.20;91.50;;;;;;5019684;28;19913;-62
2021/12/19 10:36:45;;;;;;;;;;;6.30;91.50;;;;;;5016583;28;19921;-61
2021/12/19 10:39:12;;;;;;;;;;;6.30;91.40;;;;;;5034329;28;19909;-61
2021/12/19 10:41:40;;;;;;;;;;;6.30;91.30;;;;;;5017389;28;20411;-61
2021/12/19 10:45:29;;;;;;;;;;;6.40;91.40;;;;;;5022378;28;19913;-61
2021/12/19 10:46:50;;;;;;;;;;;6.40;91.40;;;;;;5033689;28;19919;-61
2021/12/19 10:49:32;;;;;;;;;;;6.40;91.40;;;;;;5037223;28;19921;-61
2021/12/19 10:52:01;;;;;;;;;;;6.40;91.40;;;;;;5037243;28;19910;-63
2021/12/19 10:54:27;;;;;;;;;;;6.40;91.30;;;;;;5035464;28;19939;-61
2021/12/19 10:56:52;;;;;;;;;;;6.40;91.30;;;;;;5019790;28;20028;-62
2021/12/19 10:59:18;;;;;;;;;;;6.40;91.40;;;;;;5011170;28;19944;-61
2021/12/19 11:01:44;;;;;;;;;;;6.50;91.40;;;;;;5016620;28;19949;-61
2021/12/19 11:04:14;;;;;;;;;;;6.50;91.40;;;;;;5025531;28;19925;-61
2021/12/19 11:06:43;;;;;;;;;;;6.50;91.40;;;;;;5029622;28;20004;-61
2021/12/19 11:09:09;;;;;;;;;;;6.50;91.30;;;;;;5020770;28;19924;-62
2021/12/19 11:11:42;;;;;;;;;;;6.50;91.30;;;;;;5045175;28;19913;-61
2021/12/19 11:14:12;;;;;;;;;;;6.50;91.30;;;;;;5030406;28;19913;-61
2021/12/19 11:16:37;;;;;;;;;;;6.50;91.40;;;;;;5035290;28;19960;-61
2021/12/19 11:19:03;;;;;;;;;;;6.50;91.30;;;;;;5027086;28;19952;-61
2021/12/19 11:21:33;;;;;;;;;;;6.50;91.40;;;;;;5026830;28;19917;-61
2021/12/19 11:23:59;;;;;;;;;;;6.60;91.40;;;;;;5022460;28;20579;-61
2021/12/19 11:26:25;;;;;;;;;;;6.50;91.30;;;;;;5037676;28;19935;-61
2021/12/19 11:28:50;;;;;;;;;;;6.60;91.50;;;;;;5026026;28;20356;-61
2021/12/19 11:31:16;;;;;;;;;;;6.60;91.40;;;;;;5023931;28;19967;-61
2021/12/19 11:33:53;;;;;;;;;;;6.60;91.40;;;;;;5027723;28;20000;-61
2021/12/19 11:36:19;;;;;;;;;;;6.60;91.30;;;;;;5045894;28;19932;-60
2021/12/19 11:38:44;;;;;;;;;;;6.60;91.30;;;;;;5021496;28;19913;-61
2021/12/19 11:41:10;;;;;;;;;;;6.60;91.20;;;;;;5008901;28;20361;-61
2021/12/19 11:43:39;;;;;;;;;;;6.70;91.30;;;;;;5027971;28;19935;-61
2021/12/19 11:46:11;;;;;;;;;;;6.70;91.20;;;;;;5028395;28;19980;-62
2021/12/19 11:48:37;;;;;;;;;;;6.70;91.30;;;;;;5045160;28;19921;-61
2021/12/19 11:51:07;;;;;;;;;;;6.80;91.30;;;;;;5028228;28;19963;-61
2021/12/19 11:53:36;;;;;;;;;;;6.80;91.30;;;;;;5042927;28;19917;-61
2021/12/19 11:56:09;;;;;;;;;;;6.80;91.20;;;;;;5012526;28;20581;-61
2021/12/19 11:58:51;;;;;;;;;;;6.80;91.10;;;;;;5011316;28;20008;-61
2021/12/19 12:01:19;;;;;;;;;;;6.80;91.10;;;;;;5044247;28;20407;-61
2021/12/19 12:03:44;;;;;;;;;;;6.80;91.20;;;;;;5041851;28;19913;-61
2021/12/19 12:06:23;;;;;;;;;;;6.90;91.30;;;;;;5030432;28;19913;-61
2021/12/19 12:09:07;;;;;;;;;;;6.90;91.30;;;;;;5040988;28;20012;-61
2021/12/19 12:11:56;;;;;;;;;;;6.90;91.40;;;;;;5023309;28;19917;-61
2021/12/19 12:14:22;;;;;;;;;;;7.00;91.40;;;;;;5020857;28;19917;-62
2021/12/19 12:16:58;;;;;;;;;;;7.00;91.30;;;;;;5025335;28;19917;-61
2021/12/19 12:19:42;;;;;;;;;;;7.00;91.20;;;;;;5034324;28;20004;-61
2021/12/19 12:25:02;;;;;;;;;;;7.00;91.20;;;;;;5021175;28;20370;-61
2021/12/19 12:27:47;;;;;;;;;;;7.10;91.50;;;;;;5021267;28;19918;-61
2021/12/19 12:30:40;;;;;;;;;;;7.10;91.30;;;;;;5012814;28;19921;-62
2021/12/19 12:33:06;;;;;;;;;;;7.10;91.40;;;;;;5019687;28;19914;-61
2021/12/19 12:35:33;;;;;;;;;;;7.20;91.40;;;;;;5016081;28;19909;-61
2021/12/19 12:37:59;;;;;;;;;;;7.20;91.50;;;;;;5016325;28;19970;-61
2021/12/19 12:43:05;;;;;;;;;;;7.30;91.20;;;;;;5039708;28;19913;-61
2021/12/19 12:45:46;;;;;;;;;;;7.30;91.20;;;;;;5040102;28;20376;-61
2021/12/19 12:48:11;;;;;;;;;;;7.30;91.20;;;;;;5011753;28;19999;-61
2021/12/19 12:50:37;;;;;;;;;;;7.30;91.20;;;;;;5016154;28;19954;-60
2021/12/19 12:53:03;;;;;;;;;;;7.40;91.30;;;;;;5027449;28;19920;-61
2021/12/19 12:55:29;;;;;;;;;;;7.40;91.20;;;;;;5011580;28;20291;-61
2021/12/19 12:57:54;;;;;;;;;;;7.50;91.20;;;;;;5027403;28;19928;-61
2021/12/19 13:00:20;;;;;;;;;;;7.50;91.10;;;;;;5023833;28;20352;-61
2021/12/19 13:02:54;;;;;;;;;;;7.50;91.20;;;;;;5001208;28;19985;-61
2021/12/19 13:05:20;;;;;;;;;;;7.50;91.10;;;;;;5039228;28;20044;-61
2021/12/19 13:07:45;;;;;;;;;;;7.60;91.20;;;;;;5033920;28;19975;-61
2021/12/19 13:10:11;;;;;;;;;;;7.50;91.20;;;;;;5013232;28;19910;-61
2021/12/19 13:12:37;;;;;;;;;;;7.60;91.30;;;;;;5023631;28;19932;-61
2021/12/19 13:15:04;;;;;;;;;;;7.60;91.30;;;;;;5018955;28;19921;-61
2021/12/19 13:17:30;;;;;;;;;;;7.60;91.30;;;;;;5042754;28;20002;-61
2021/12/19 13:19:55;;;;;;;;;;;7.70;91.40;;;;;;5024016;28;19917;-61
2021/12/19 13:22:25;;;;;;;;;;;7.70;91.30;;;;;;5023828;28;19987;-61
2021/12/19 13:24:51;;;;;;;;;;;7.70;91.20;;;;;;5021693;28;19917;-61
2021/12/19 13:27:18;;;;;;;;;;;7.70;91.20;;;;;;5018160;28;20273;-60
2021/12/19 13:29:55;;;;;;;;;;;7.70;91.20;;;;;;5019945;28;19925;-60
2021/12/19 13:32:31;;;;;;;;;;;7.70;91.20;;;;;;5019213;28;20284;-60
2021/12/19 13:34:56;;;;;;;;;;;7.80;91.20;;;;;;5035985;28;19920;-60
2021/12/19 13:37:22;;;;;;;;;;;7.70;91.30;;;;;;5033573;28;19922;-60
2021/12/19 13:39:57;;;;;;;;;;;7.70;91.30;;;;;;5019137;28;20261;-61
2021/12/19 13:42:23;;;;;;;;;;;7.70;91.20;;;;;;5025758;28;19920;-60
2021/12/19 13:44:51;;;;;;;;;;;7.80;91.30;;;;;;5018465;28;19921;-61
2021/12/19 13:47:23;;;;;;;;;;;7.80;91.30;;;;;;5005561;28;19913;-61
2021/12/19 13:49:48;;;;;;;;;;;7.80;91.40;;;;;;5013490;28;19917;-62
2021/12/19 13:52:14;;;;;;;;;;;7.80;91.40;;;;;;5013722;28;19913;-61
2021/12/19 13:54:40;;;;;;;;;;;7.90;91.30;;;;;;5033443;28;19928;-61
2021/12/19 13:57:35;;;;;;;;;;;7.80;91.10;;;;;;5025125;28;20376;-61
2021/12/19 14:00:01;;;;;;;;;;;7.90;91.10;;;;;;5014206;28;20383;-61
2021/12/19 14:02:27;;;;;;;;;;;7.80;91.20;;;;;;5003708;28;19921;-61
2021/12/19 14:04:54;;;;;;;;;;;7.90;91.50;;;;;;5001956;28;20361;-60
2021/12/19 14:07:20;;;;;;;;;;;7.90;91.50;;;;;;5003474;28;19921;-61
2021/12/19 14:09:46;;;;;;;;;;;7.90;91.60;;;;;;5003172;28;19963;-60
2021/12/19 14:12:23;;;;;;;;;;;7.90;91.50;;;;;;4995048;28;19913;-61
2021/12/19 14:14:49;;;;;;;;;;;8.00;91.30;;;;;;5016819;28;19966;-61
2021/12/19 14:17:14;;;;;;;;;;;8.10;91.30;;;;;;5020385;28;19913;-60
2021/12/19 14:19:40;;;;;;;;;;;8.10;91.40;;;;;;5002337;28;19921;-61
2021/12/19 14:22:06;;;;;;;;;;;8.10;91.30;;;;;;5001016;28;20004;-61
2021/12/19 14:24:38;;;;;;;;;;;8.10;91.20;;;;;;5019611;28;19959;-61
2021/12/19 14:27:13;;;;;;;;;;;8.10;91.20;;;;;;5010686;28;19920;-61
2021/12/19 14:29:41;;;;;;;;;;;8.10;91.20;;;;;;5012138;28;20533;-60
2021/12/19 14:32:08;;;;;;;;;;;8.10;91.30;;;;;;5005451;28;20163;-61
2021/12/19 14:34:33;;;;;;;;;;;8.10;91.30;;;;;;4994984;28;20345;-60
2021/12/19 14:37:31;;;;;;;;;;;8.10;91.30;;;;;;4994104;28;20048;-60
2021/12/19 14:39:57;;;;;;;;;;;8.10;91.20;;;;;;4996559;28;19925;-60
2021/12/19 14:42:27;;;;;;;;;;;8.20;91.30;;;;;;5007049;28;19921;-60
2021/12/19 14:44:56;;;;;;;;;;;8.10;91.50;;;;;;4999199;28;19975;-60
2021/12/19 14:47:37;;;;;;;;;;;8.10;91.40;;;;;;5000367;28;19921;-61
2021/12/19 14:50:29;;;;;;;;;;;8.10;91.20;;;;;;5005704;28;19943;-60
2021/12/19 14:53:02;;;;;;;;;;;8.10;91.20;;;;;;5016641;28;19975;-61
2021/12/19 14:55:28;;;;;;;;;;;8.10;91.20;;;;;;5020987;28;19995;-61
2021/12/19 14:57:54;;;;;;;;;;;8.10;91.20;;;;;;5006362;28;19921;-60
2021/12/19 15:00:19;;;;;;;;;;;8.10;91.20;;;;;;5007934;28;19929;-61
2021/12/19 15:02:45;;;;;;;;;;;8.00;91.30;;;;;;5021562;28;19925;-61
2021/12/19 15:05:10;;;;;;;;;;;8.10;91.40;;;;;;5039897;28;19921;-60
2021/12/19 15:07:42;;;;;;;;;;;8.30;91.40;;;;;;5017584;28;20019;-60
2021/12/19 15:10:07;;;;;;;;;;;8.10;91.30;;;;;;5011787;28;20003;-61
2021/12/19 15:12:33;;;;;;;;;;;8.10;91.20;;;;;;5008364;28;20424;-60
2021/12/19 15:14:59;;;;;;;;;;;8.10;91.20;;;;;;5016448;28;20396;-61
2021/12/19 15:17:25;;;;;;;;;;;8.10;91.10;;;;;;5034646;28;20099;-61
2021/12/19 15:19:50;;;;;;;;;;;8.10;91.00;;;;;;5037519;28;20000;-61
2021/12/19 15:22:15;;;;;;;;;;;8.00;91.00;;;;;;5023076;28;19917;-60
2021/12/19 15:24:41;;;;;;;;;;;8.10;91.10;;;;;;5027629;28;20456;-61
2021/12/19 15:27:06;;;;;;;;;;;8.10;91.10;;;;;;5008950;28;19964;-61
2021/12/19 15:29:32;;;;;;;;;;;8.20;91.20;;;;;;5026499;28;19936;-61
2021/12/19 15:31:58;;;;;;;;;;;8.20;91.10;;;;;;5030686;28;20722;-61
2021/12/19 15:34:24;;;;;;;;;;;8.20;90.90;;;;;;5004582;28;20421;-60
2021/12/19 15:36:49;;;;;;;;;;;8.20;90.90;;;;;;5028582;28;19992;-61
2021/12/19 15:39:15;;;;;;;;;;;8.20;90.70;;;;;;5036955;28;19927;-61
2021/12/19 15:41:40;;;;;;;;;;;8.20;90.70;;;;;;5037323;28;19921;-61
2021/12/19 15:44:06;;;;;;;;;;;8.20;90.70;;;;;;5009211;28;19913;-61